createdAt,value
2023-05-30T00:00:44.799Z,3.83
2023-05-30T00:03:50.245Z,4.20
2023-05-30T00:06:53.066Z,3.33
2023-05-30T00:09:55.850Z,4.00
2023-05-30T00:12:58.468Z,3.72
2023-05-30T00:16:03.056Z,4.15
2023-05-30T00:19:05.729Z,4.15
2023-05-30T00:22:08.352Z,4.28
2023-05-30T00:25:11.068Z,4.38
2023-05-30T00:28:13.479Z,3.87
2023-05-30T00:31:15.971Z,4.38
2023-05-30T00:34:18.438Z,3.67
2023-05-30T00:37:21.949Z,3.50
2023-05-30T00:40:27.544Z,4.00
2023-05-30T00:43:29.930Z,3.22
2023-05-30T00:46:32.402Z,4.00
2023-05-30T00:49:35.416Z,3.60
2023-05-30T00:52:37.934Z,3.83
2023-05-30T00:55:40.595Z,4.05
2023-05-30T00:58:43.063Z,3.80
2023-05-30T01:01:46.584Z,3.47
2023-05-30T01:04:49.463Z,5.15
2023-05-30T01:07:52.475Z,3.63
2023-05-30T01:11:03.515Z,3.33
2023-05-30T01:14:16.332Z,3.63
2023-05-30T01:17:37.542Z,3.50
2023-05-30T01:20:45.737Z,3.85
2023-05-30T01:24:17.011Z,3.60
2023-05-30T01:27:32.503Z,3.65
2023-05-30T01:30:39.772Z,3.07
2023-05-30T01:33:45.018Z,3.50
2023-05-30T01:36:48.505Z,3.47
2023-05-30T01:39:51.146Z,3.43
2023-05-30T01:43:06.779Z,3.45
2023-05-30T01:46:15.281Z,3.47
2023-05-30T01:49:33.726Z,3.20
2023-05-30T01:52:41.072Z,3.50
2023-05-30T01:55:45.751Z,3.47
2023-05-30T01:58:52.589Z,3.83
2023-05-30T02:01:56.887Z,3.27
2023-05-30T02:04:59.295Z,3.38
2023-05-30T02:08:01.666Z,3.42
2023-05-30T02:11:04.319Z,3.77
2023-05-30T02:14:08.559Z,3.30
2023-05-30T02:17:10.984Z,3.40
2023-05-30T02:20:13.554Z,3.08
2023-05-30T02:23:15.982Z,3.08
2023-05-30T02:26:18.450Z,3.30
2023-05-30T02:29:20.883Z,3.50
2023-05-30T02:32:23.818Z,3.40
2023-05-30T02:35:27.895Z,3.58
2023-05-30T02:38:30.377Z,2.92
2023-05-30T02:41:33.360Z,3.00
2023-05-30T02:44:36.088Z,3.70
2023-05-30T02:47:40.784Z,3.42
2023-05-30T02:50:43.984Z,2.92
2023-05-30T02:53:52.116Z,3.50
2023-05-30T02:57:00.603Z,3.25
2023-05-30T03:00:17.096Z,3.22
2023-05-30T03:03:28.026Z,2.77
2023-05-30T03:06:39.892Z,3.50
2023-05-30T03:09:51.166Z,3.08
2023-05-30T03:12:53.606Z,3.53
2023-05-30T03:15:56.073Z,4.32
2023-05-30T03:18:59.263Z,3.17
2023-05-30T03:22:02.231Z,3.20
2023-05-30T03:25:06.387Z,3.25
2023-05-30T03:28:08.806Z,3.08
2023-05-30T03:31:25.130Z,3.33
2023-05-30T03:34:29.080Z,3.27
2023-05-30T03:37:31.616Z,3.40
2023-05-30T03:40:34.042Z,3.10
2023-05-30T03:43:36.466Z,3.23
2023-05-30T03:46:38.889Z,3.63
2023-05-30T03:49:41.385Z,3.03
2023-05-30T03:52:43.901Z,3.22
2023-05-30T03:55:46.496Z,3.40
2023-05-30T03:58:48.946Z,3.80
2023-05-30T04:01:51.612Z,2.92
2023-05-30T04:04:54.462Z,3.50
2023-05-30T04:07:57.948Z,4.07
2023-05-30T04:11:00.527Z,2.92
2023-05-30T04:14:03.021Z,3.20
2023-05-30T04:17:05.717Z,3.08
2023-05-30T04:20:11.306Z,2.95
2023-05-30T04:23:15.302Z,3.30
2023-05-30T04:26:17.833Z,2.90
2023-05-30T04:29:21.800Z,3.47
2023-05-30T04:32:25.298Z,3.15
2023-05-30T04:35:30.939Z,2.90
2023-05-30T04:38:35.797Z,2.97
2023-05-30T04:41:38.271Z,2.95
2023-05-30T04:44:40.915Z,2.90
2023-05-30T04:47:46.201Z,2.75
2023-05-30T04:50:49.305Z,3.13
2023-05-30T04:53:52.009Z,3.30
2023-05-30T04:56:54.636Z,3.22
2023-05-30T04:59:57.018Z,3.67
2023-05-30T05:03:01.200Z,3.53
2023-05-30T05:06:03.899Z,3.20
2023-05-30T05:09:06.420Z,2.78
2023-05-30T05:12:09.323Z,3.08
2023-05-30T05:15:11.845Z,2.73
2023-05-30T05:18:14.298Z,2.92
2023-05-30T05:21:16.717Z,2.85
2023-05-30T05:24:19.096Z,2.97
2023-05-30T05:27:21.477Z,3.08
2023-05-30T05:30:23.892Z,3.03
2023-05-30T05:33:26.295Z,3.20
2023-05-30T05:36:28.883Z,3.00
2023-05-30T05:39:31.317Z,2.83
2023-05-30T05:42:34.697Z,3.10
2023-05-30T05:45:37.295Z,3.37
2023-05-30T05:48:39.700Z,3.63
2023-05-30T05:51:42.259Z,4.38
2023-05-30T05:54:44.651Z,3.53
2023-05-30T05:57:47.088Z,4.15
2023-05-30T06:00:49.571Z,3.95
2023-05-30T06:03:52.040Z,3.78
2023-05-30T06:07:00.096Z,3.97
2023-05-30T06:10:02.851Z,4.70
2023-05-30T06:13:05.338Z,4.50
2023-05-30T06:16:07.831Z,4.47
2023-05-30T06:19:10.352Z,3.92
2023-05-30T06:22:12.742Z,3.90
2023-05-30T06:25:15.137Z,3.78
2023-05-30T06:28:17.536Z,4.32
2023-05-30T06:31:19.978Z,3.80
2023-05-30T06:34:22.401Z,4.47
2023-05-30T06:37:24.828Z,3.90
2023-05-30T06:40:27.275Z,3.70
2023-05-30T06:43:29.738Z,3.47
2023-05-30T06:46:32.594Z,4.03
2023-05-30T06:49:35.104Z,4.00
2023-05-30T06:52:37.542Z,4.75
2023-05-30T06:55:40.554Z,3.70
2023-05-30T06:58:44.069Z,3.90
2023-05-30T07:01:47.469Z,4.40
2023-05-30T07:04:49.944Z,4.63
2023-05-30T07:07:52.341Z,3.47
2023-05-30T07:10:54.992Z,4.65
2023-05-30T07:13:57.806Z,4.18
2023-05-30T07:17:00.465Z,4.30
2023-05-30T07:20:03.377Z,4.82
2023-05-30T07:23:05.895Z,4.40
2023-05-30T07:26:08.415Z,5.90
2023-05-30T07:29:10.892Z,4.00
2023-05-30T07:32:14.127Z,3.90
2023-05-30T07:35:16.665Z,3.85
2023-05-30T07:38:19.023Z,3.60
2023-05-30T07:41:21.721Z,3.85
2023-05-30T07:44:24.135Z,3.22
2023-05-30T07:47:26.635Z,4.80
2023-05-30T07:50:29.148Z,4.47
2023-05-30T07:53:31.507Z,3.45
2023-05-30T07:56:34.574Z,4.10
2023-05-30T07:59:36.977Z,3.90
2023-05-30T08:02:39.569Z,3.88
2023-05-30T08:05:42.249Z,4.30
2023-05-30T08:08:44.669Z,4.23
2023-05-30T08:11:47.091Z,3.63
2023-05-30T08:14:49.502Z,3.50
2023-05-30T08:17:52.102Z,3.10
2023-05-30T08:20:55.951Z,4.10
2023-05-30T08:24:01.263Z,3.80
2023-05-30T08:27:05.537Z,4.03
2023-05-30T08:30:08.617Z,3.60
2023-05-30T08:33:11.986Z,4.05
2023-05-30T08:36:14.733Z,3.60
2023-05-30T08:39:17.637Z,3.80
2023-05-30T08:42:20.209Z,3.90
2023-05-30T08:45:24.019Z,4.47
2023-05-30T08:48:30.095Z,3.40
2023-05-30T08:51:34.391Z,4.07
2023-05-30T08:54:41.229Z,3.93
2023-05-30T08:57:56.202Z,3.83
2023-05-30T09:00:59.561Z,4.00
2023-05-30T09:04:03.618Z,5.00
2023-05-30T09:07:07.543Z,4.13
2023-05-30T09:10:11.427Z,3.70
2023-05-30T09:13:13.822Z,3.78
2023-05-30T09:16:17.087Z,4.40
2023-05-30T09:19:20.552Z,4.43
2023-05-30T09:22:23.722Z,4.18
2023-05-30T09:25:26.202Z,4.45
2023-05-30T09:28:29.493Z,3.90
2023-05-30T09:31:32.333Z,4.20
2023-05-30T09:34:35.814Z,4.25
2023-05-30T09:37:42.623Z,4.40
2023-05-30T09:40:45.097Z,3.92
2023-05-30T09:43:53.345Z,4.00
2023-05-30T09:46:58.158Z,3.50
2023-05-30T09:50:03.011Z,4.18
2023-05-30T09:53:05.440Z,4.85
2023-05-30T09:56:08.602Z,3.80
2023-05-30T09:59:12.769Z,4.25
2023-05-30T10:02:22.869Z,3.93
2023-05-30T10:05:27.913Z,4.35
2023-05-30T10:08:31.150Z,5.65
2023-05-30T10:11:34.209Z,4.25
2023-05-30T10:14:36.613Z,4.40
2023-05-30T10:17:45.446Z,4.53
2023-05-30T10:20:49.266Z,4.30
2023-05-30T10:23:54.291Z,4.18
2023-05-30T10:27:00.554Z,4.57
2023-05-30T10:30:06.574Z,4.10
2023-05-30T10:33:10.914Z,4.33
2023-05-30T10:36:13.657Z,4.30
2023-05-30T10:39:33.706Z,4.57
2023-05-30T10:42:42.440Z,4.65
2023-05-30T10:46:08.153Z,4.50
2023-05-30T10:49:21.928Z,4.13
2023-05-30T10:52:34.252Z,4.28
2023-05-30T10:55:36.973Z,4.03
2023-05-30T10:58:43.436Z,4.38
2023-05-30T11:02:02.316Z,4.50
2023-05-30T11:05:11.793Z,3.90
2023-05-30T11:08:14.419Z,3.45
2023-05-30T11:11:17.911Z,3.72
2023-05-30T11:14:26.715Z,3.43
2023-05-30T11:17:32.002Z,4.20
2023-05-30T11:20:49.449Z,4.00
2023-05-30T11:24:01.237Z,3.88
2023-05-30T11:27:07.611Z,3.97
2023-05-30T11:30:21.098Z,4.07
2023-05-30T11:33:25.584Z,3.30
2023-05-30T11:36:28.296Z,3.78
2023-05-30T11:39:40.352Z,3.80
2023-05-30T11:42:42.859Z,4.23
2023-05-30T11:45:47.894Z,3.65
2023-05-30T11:48:51.030Z,3.60
2023-05-30T11:51:53.902Z,3.45
2023-05-30T11:55:01.836Z,3.63
2023-05-30T11:58:04.378Z,3.37
2023-05-30T12:01:07.287Z,3.30
2023-05-30T12:04:09.888Z,5.53
2023-05-30T12:07:12.574Z,4.05
2023-05-30T12:10:14.991Z,3.30
2023-05-30T12:13:19.259Z,4.00
2023-05-30T12:16:21.779Z,4.00
2023-05-30T12:19:31.153Z,3.83
2023-05-30T12:22:33.848Z,3.58
2023-05-30T12:25:36.254Z,4.20
2023-05-30T12:28:46.203Z,3.58
2023-05-30T12:31:48.778Z,3.90
2023-05-30T12:34:51.292Z,3.97
2023-05-30T12:37:57.533Z,4.03
2023-05-30T12:41:00.211Z,4.10
2023-05-30T12:44:02.895Z,3.75
2023-05-30T12:47:05.442Z,3.70
2023-05-30T12:50:08.372Z,3.65
2023-05-30T12:53:11.015Z,4.50
2023-05-30T12:56:14.689Z,4.20
2023-05-30T12:59:17.076Z,4.05
2023-05-30T13:02:21.592Z,4.10
2023-05-30T13:05:24.184Z,4.50
2023-05-30T13:08:27.116Z,5.32
2023-05-30T13:11:29.486Z,5.03
2023-05-30T13:14:32.361Z,4.55
2023-05-30T13:17:34.840Z,4.20
2023-05-30T13:20:37.422Z,3.43
2023-05-30T13:23:39.919Z,4.47
2023-05-30T13:26:42.322Z,3.63
2023-05-30T13:29:45.511Z,3.95
2023-05-30T13:32:48.809Z,3.33
2023-05-30T13:35:51.290Z,3.60
2023-05-30T13:38:54.660Z,3.83
2023-05-30T13:41:57.418Z,3.63
2023-05-30T13:45:00.186Z,3.42
2023-05-30T13:48:02.891Z,3.50
2023-05-30T13:51:05.433Z,3.63
2023-05-30T13:54:08.676Z,3.67
2023-05-30T13:57:11.107Z,3.40
2023-05-30T14:00:14.671Z,3.45
2023-05-30T14:03:17.162Z,4.23
2023-05-30T14:06:19.727Z,3.80
2023-05-30T14:09:23.077Z,7.07
2023-05-30T14:12:27.311Z,3.90
2023-05-30T14:15:34.087Z,3.72
2023-05-30T14:18:36.526Z,3.55
2023-05-30T14:21:40.420Z,3.92
2023-05-30T14:24:43.177Z,3.65
2023-05-30T14:27:46.434Z,4.22
2023-05-30T14:30:48.863Z,4.70
2023-05-30T14:33:51.253Z,3.80
2023-05-30T14:36:53.733Z,4.05
2023-05-30T14:39:56.130Z,6.30
2023-05-30T14:42:58.905Z,3.70
2023-05-30T14:46:01.748Z,3.45
2023-05-30T14:49:04.441Z,3.63
2023-05-30T14:52:07.134Z,3.50
2023-05-30T14:55:09.851Z,3.35
2023-05-30T14:58:12.561Z,3.30
2023-05-30T15:04:21.370Z,3.47
2023-05-30T15:07:23.867Z,3.80
2023-05-30T15:10:26.323Z,3.10
2023-05-30T15:13:28.718Z,3.67
2023-05-30T15:16:31.531Z,3.33
2023-05-30T15:19:33.957Z,3.83
2023-05-30T15:22:36.771Z,4.18
2023-05-30T15:25:39.196Z,3.92
2023-05-30T15:28:41.670Z,3.85
2023-05-30T15:31:44.099Z,3.78
2023-05-30T15:34:46.610Z,4.00
2023-05-30T15:37:49.026Z,3.45
2023-05-30T15:40:51.603Z,3.90
2023-05-30T15:43:53.993Z,3.80
2023-05-30T15:46:58.542Z,4.00
2023-05-30T15:50:01.125Z,3.90
2023-05-30T15:53:03.618Z,3.38
2023-05-30T15:56:06.140Z,4.00
2023-05-30T15:59:09.092Z,3.78
2023-05-30T16:02:11.612Z,4.00
2023-05-30T16:05:14.025Z,3.43
2023-05-30T16:08:16.493Z,3.88
2023-05-30T16:11:18.867Z,3.35
2023-05-30T16:14:22.886Z,3.50
2023-05-30T16:17:25.441Z,3.88
2023-05-30T16:20:30.682Z,3.45
2023-05-30T16:23:34.796Z,3.90
2023-05-30T16:26:37.909Z,4.18
2023-05-30T16:29:40.280Z,3.97
2023-05-30T16:32:42.669Z,3.90
2023-05-30T16:36:02.524Z,3.37
2023-05-30T16:39:10.130Z,3.90
2023-05-30T16:42:12.606Z,3.78
2023-05-30T16:45:15.124Z,3.73
2023-05-30T16:48:17.538Z,3.58
2023-05-30T16:51:20.145Z,3.70
2023-05-30T16:54:22.572Z,4.03
2023-05-30T16:57:24.983Z,4.03
2023-05-30T17:00:29.475Z,3.92
2023-05-30T17:03:33.613Z,4.28
2023-05-30T17:06:36.980Z,3.70
2023-05-30T17:09:39.497Z,3.60
2023-05-30T17:12:42.322Z,3.72
2023-05-30T17:15:45.946Z,4.03
2023-05-30T17:18:48.374Z,3.60
2023-05-30T17:21:50.840Z,3.80
2023-05-30T17:24:53.636Z,3.30
2023-05-30T17:27:57.382Z,3.72
2023-05-30T17:31:01.393Z,3.78
2023-05-30T17:34:04.404Z,3.35
2023-05-30T17:37:07.428Z,3.13
2023-05-30T17:40:10.201Z,3.55
2023-05-30T17:43:12.621Z,3.33
2023-05-30T17:46:15.263Z,3.17
2023-05-30T17:49:17.947Z,2.97
2023-05-30T17:52:20.380Z,3.47
2023-05-30T17:55:22.771Z,3.90
2023-05-30T17:58:25.191Z,3.40
2023-05-30T18:01:27.658Z,3.25
2023-05-30T18:04:30.700Z,3.50
2023-05-30T18:07:33.173Z,2.73
2023-05-30T18:10:35.602Z,3.22
2023-05-30T18:13:37.998Z,3.30
2023-05-30T18:16:40.428Z,3.30
2023-05-30T18:19:42.916Z,4.53
2023-05-30T18:22:45.596Z,3.67
2023-05-30T18:25:47.994Z,3.30
2023-05-30T18:28:50.392Z,3.25
2023-05-30T18:31:52.841Z,3.45
2023-05-30T18:34:55.299Z,3.67
2023-05-30T18:37:58.001Z,3.07
2023-05-30T18:41:00.624Z,3.28
2023-05-30T18:44:04.525Z,3.10
2023-05-30T18:47:08.125Z,2.87
2023-05-30T18:50:11.179Z,3.20
2023-05-30T18:53:14.175Z,2.90
2023-05-30T18:56:17.043Z,2.55
2023-05-30T18:59:19.416Z,2.83
2023-05-30T19:02:21.811Z,3.25
2023-05-30T19:05:25.275Z,2.78
2023-05-30T19:08:27.759Z,3.10
2023-05-30T19:11:30.228Z,3.38
2023-05-30T19:14:32.613Z,3.40
2023-05-30T19:17:35.002Z,2.70
2023-05-30T19:23:40.973Z,3.00
2023-05-30T19:26:43.422Z,3.28
2023-05-30T19:29:45.911Z,3.17
2023-05-30T19:32:48.914Z,2.95
2023-05-30T19:35:51.377Z,2.90
2023-05-30T19:38:53.774Z,3.17
2023-05-30T19:41:56.219Z,2.80
2023-05-30T19:44:59.520Z,3.08
2023-05-30T19:48:02.313Z,3.40
2023-05-30T19:51:05.062Z,2.60
2023-05-30T19:54:07.477Z,2.55
2023-05-30T19:57:12.913Z,2.80
2023-05-30T20:00:16.144Z,2.97
2023-05-30T20:03:19.381Z,2.95
2023-05-30T20:06:22.184Z,2.60
2023-05-30T20:09:24.852Z,2.80
2023-05-30T20:12:27.267Z,2.78
2023-05-30T20:15:29.694Z,2.63
2023-05-30T20:18:32.267Z,2.83
2023-05-30T20:21:34.710Z,2.80
2023-05-30T20:24:38.030Z,2.88
2023-05-30T20:27:40.812Z,2.58
2023-05-30T20:30:43.363Z,2.85
2023-05-30T20:33:45.815Z,2.25
2023-05-30T20:36:48.294Z,3.40
2023-05-30T20:39:50.841Z,2.33
2023-05-30T20:42:53.228Z,2.47
2023-05-30T20:45:55.672Z,2.72
2023-05-30T20:48:58.139Z,2.37
2023-05-30T20:52:00.542Z,2.90
2023-05-30T20:55:03.279Z,2.70
2023-05-30T20:58:05.647Z,2.38
2023-05-30T21:01:08.007Z,2.33
2023-05-30T21:04:10.783Z,2.67
2023-05-30T21:07:13.256Z,2.42
2023-05-30T21:10:15.818Z,2.13
2023-05-30T21:13:18.215Z,2.63
2023-05-30T21:16:22.901Z,2.45
2023-05-30T21:19:25.393Z,2.50
2023-05-30T21:22:27.751Z,2.55
2023-05-30T21:25:30.183Z,2.40
2023-05-30T21:28:32.582Z,2.65
2023-05-30T21:31:35.006Z,2.42
2023-05-30T21:34:37.492Z,2.50
2023-05-30T21:37:39.967Z,2.70
2023-05-30T21:40:44.833Z,2.10
2023-05-30T21:43:47.644Z,2.42
2023-05-30T21:46:50.062Z,2.30
2023-05-30T21:49:52.475Z,2.53
2023-05-30T21:52:54.823Z,2.20
2023-05-30T21:55:57.193Z,2.63
2023-05-30T21:59:00.116Z,2.10
2023-05-30T22:02:06.915Z,2.47
2023-05-30T22:05:09.568Z,2.53
2023-05-30T22:08:12.030Z,2.35
2023-05-30T22:11:14.432Z,2.60
2023-05-30T22:14:17.035Z,2.42
2023-05-30T22:17:19.633Z,2.53
2023-05-30T22:20:22.184Z,2.90
2023-05-30T22:23:24.627Z,2.70
2023-05-30T22:26:27.072Z,2.05
2023-05-30T22:29:29.834Z,2.35
2023-05-30T22:32:33.149Z,2.17
2023-05-30T22:35:35.586Z,2.53
2023-05-30T22:38:38.001Z,2.83
2023-05-30T22:41:40.530Z,2.67
2023-05-30T22:44:42.986Z,2.40
2023-05-30T22:47:45.399Z,2.80
2023-05-30T22:50:47.829Z,2.33
2023-05-30T22:53:50.368Z,2.42
2023-05-30T22:56:52.760Z,3.50
2023-05-30T22:59:55.259Z,2.40
2023-05-30T23:02:57.741Z,2.67
2023-05-30T23:06:00.281Z,3.03
2023-05-30T23:09:02.875Z,2.30
2023-05-30T23:12:06.332Z,2.33
2023-05-30T23:15:08.801Z,2.50
2023-05-30T23:18:11.166Z,2.60
2023-05-30T23:21:14.781Z,2.37
2023-05-30T23:24:17.292Z,2.75
2023-05-30T23:27:19.756Z,2.45
2023-05-30T23:30:22.507Z,2.30
2023-05-30T23:33:24.894Z,2.70
2023-05-30T23:36:27.253Z,2.78
2023-05-30T23:39:29.642Z,2.63
2023-05-30T23:42:32.072Z,2.47
2023-05-30T23:45:34.445Z,3.22
2023-05-30T23:48:36.835Z,2.63
2023-05-30T23:51:39.266Z,2.50
2023-05-30T23:54:41.727Z,2.17
2023-05-30T23:57:44.156Z,2.38
